createdAt,value
2019-03-31T00:01:47.475Z,38.67
2019-03-31T00:04:15.983Z,41.77
2019-03-31T00:06:44.459Z,43.53
2019-03-31T00:09:12.951Z,42.93
2019-03-31T00:11:41.539Z,43.13
2019-03-31T00:14:10.026Z,42.90
2019-03-31T00:16:38.578Z,42.07
2019-03-31T00:19:07.197Z,46.17
2019-03-31T00:21:35.756Z,42.87
2019-03-31T00:24:04.281Z,53.47
2019-03-31T00:26:32.822Z,48.47
2019-03-31T00:29:01.320Z,48.07
2019-03-31T00:31:29.818Z,54.03
2019-03-31T00:33:58.324Z,50.03
2019-03-31T00:36:26.793Z,44.07
2019-03-31T00:38:55.300Z,46.77
2019-03-31T00:41:23.771Z,46.90
2019-03-31T00:43:52.274Z,46.77
2019-03-31T00:46:20.768Z,51.70
2019-03-31T00:48:49.233Z,48.20
2019-03-31T00:51:17.749Z,48.30
2019-03-31T00:53:46.226Z,48.90
2019-03-31T00:56:14.741Z,50.57
2019-03-31T00:58:43.320Z,50.80
2019-03-31T01:01:14.144Z,50.93
2019-03-31T01:03:42.625Z,49.50
2019-03-31T01:06:12.733Z,51.93
2019-03-31T01:08:41.212Z,50.40
2019-03-31T01:11:12.776Z,48.93
2019-03-31T01:13:41.351Z,50.63
2019-03-31T01:16:12.662Z,54.40
2019-03-31T01:18:41.400Z,58.20
2019-03-31T01:21:10.055Z,49.53
2019-03-31T01:23:38.582Z,60.40
2019-03-31T01:26:07.464Z,66.17
2019-03-31T01:28:36.014Z,71.30
2019-03-31T01:31:04.658Z,59.33
2019-03-31T01:33:33.219Z,61.93
2019-03-31T01:36:01.728Z,57.37
2019-03-31T01:38:30.285Z,57.37
2019-03-31T01:40:58.800Z,62.37
2019-03-31T01:43:27.280Z,56.10
2019-03-31T01:45:55.961Z,57.60
2019-03-31T01:48:24.435Z,59.00
2019-03-31T01:50:52.937Z,56.90
2019-03-31T01:53:21.416Z,57.50
2019-03-31T01:55:49.987Z,52.90
2019-03-31T01:58:18.468Z,58.60
2019-03-31T02:00:54.207Z,59.53
2019-03-31T02:03:22.753Z,59.40
2019-03-31T02:05:51.405Z,55.70
2019-03-31T02:08:20.063Z,55.33
2019-03-31T02:10:48.583Z,53.03
2019-03-31T02:13:17.062Z,51.40
2019-03-31T02:15:45.575Z,56.80
2019-03-31T02:18:14.061Z,54.20
2019-03-31T02:20:42.564Z,54.63
2019-03-31T02:23:11.105Z,51.77
2019-03-31T02:25:39.614Z,51.73
2019-03-31T02:28:08.093Z,49.90
2019-03-31T02:30:36.600Z,51.07
2019-03-31T02:33:05.088Z,50.13
2019-03-31T02:35:33.579Z,52.03
2019-03-31T02:38:02.061Z,48.67
2019-03-31T02:40:30.641Z,49.80
2019-03-31T02:42:59.192Z,48.37
2019-03-31T02:45:27.690Z,49.80
2019-03-31T02:47:56.164Z,50.47
2019-03-31T02:50:36.686Z,51.53
2019-03-31T02:53:05.165Z,49.50
2019-03-31T02:55:33.739Z,49.13
2019-03-31T02:58:02.355Z,44.67
2019-03-31T03:00:32.059Z,46.27
2019-03-31T03:03:01.969Z,44.33
2019-03-31T03:05:32.458Z,50.80
2019-03-31T03:08:01.821Z,52.03
2019-03-31T03:10:31.996Z,45.27
2019-03-31T03:13:01.979Z,46.30
2019-03-31T03:15:32.576Z,44.03
2019-03-31T03:18:01.053Z,45.57
2019-03-31T03:20:29.554Z,45.37
2019-03-31T03:22:58.034Z,46.23
2019-03-31T03:25:26.540Z,47.47
2019-03-31T03:27:55.023Z,45.57
2019-03-31T03:30:23.625Z,43.67
2019-03-31T03:33:13.313Z,42.53
2019-03-31T03:35:22.484Z,40.90
2019-03-31T03:37:50.952Z,42.40
2019-03-31T03:40:19.456Z,43.83
2019-03-31T03:42:47.944Z,42.10
2019-03-31T03:45:16.447Z,43.33
2019-03-31T03:47:44.942Z,43.43
2019-03-31T03:50:13.427Z,41.80
2019-03-31T03:52:41.928Z,40.00
2019-03-31T03:55:10.547Z,41.83
2019-03-31T03:57:39.062Z,43.50
2019-03-31T04:00:09.116Z,42.00
2019-03-31T04:02:37.621Z,43.10
2019-03-31T04:05:06.741Z,42.93
2019-03-31T04:07:35.261Z,38.33
2019-03-31T04:10:06.777Z,41.90
2019-03-31T04:12:35.278Z,38.83
2019-03-31T04:15:03.823Z,37.80
2019-03-31T04:17:32.321Z,42.17
2019-03-31T04:20:00.826Z,41.23
2019-03-31T04:22:29.330Z,39.93
2019-03-31T04:24:57.811Z,40.07
2019-03-31T04:27:26.334Z,38.40
2019-03-31T04:29:54.793Z,35.70
2019-03-31T04:32:23.309Z,36.53
2019-03-31T04:34:51.794Z,35.93
2019-03-31T04:37:20.287Z,34.47
2019-03-31T04:39:48.780Z,38.50
2019-03-31T04:42:17.279Z,38.87
2019-03-31T04:44:45.758Z,39.53
2019-03-31T04:47:14.270Z,36.77
2019-03-31T04:49:42.754Z,35.77
2019-03-31T04:52:11.252Z,38.47
2019-03-31T04:54:39.729Z,35.70
2019-03-31T04:57:08.242Z,34.20
2019-03-31T04:59:36.727Z,36.93
2019-03-31T05:02:05.226Z,37.13
2019-03-31T05:04:33.708Z,37.33
2019-03-31T05:07:02.210Z,34.93
2019-03-31T05:09:30.686Z,34.27
2019-03-31T05:11:59.189Z,34.07
2019-03-31T05:14:27.669Z,35.50
2019-03-31T05:16:56.173Z,34.70
2019-03-31T05:19:24.653Z,34.33
2019-03-31T05:21:53.157Z,34.80
2019-03-31T05:24:21.640Z,32.13
2019-03-31T05:26:50.141Z,34.10
2019-03-31T05:29:18.619Z,35.27
2019-03-31T05:31:47.133Z,32.90
2019-03-31T05:34:19.212Z,39.93
2019-03-31T05:36:45.836Z,37.87
2019-03-31T05:39:14.311Z,35.77
2019-03-31T05:41:42.821Z,39.30
2019-03-31T05:44:11.300Z,35.17
2019-03-31T05:46:39.812Z,36.97
2019-03-31T05:49:08.290Z,38.47
2019-03-31T05:51:36.823Z,36.13
2019-03-31T05:54:05.295Z,35.77
2019-03-31T05:56:33.814Z,37.10
2019-03-31T05:59:02.291Z,37.03
2019-03-31T06:01:30.793Z,37.87
2019-03-31T06:03:59.275Z,36.83
2019-03-31T06:06:27.786Z,38.20
2019-03-31T06:08:56.265Z,39.60
2019-03-31T06:11:24.769Z,36.67
2019-03-31T06:13:53.245Z,39.53
2019-03-31T06:16:21.722Z,37.83
2019-03-31T06:18:50.226Z,37.20
2019-03-31T06:21:18.698Z,37.23
2019-03-31T06:23:47.202Z,40.60
2019-03-31T06:26:15.682Z,36.57
2019-03-31T06:28:44.194Z,36.53
2019-03-31T06:31:12.681Z,37.60
2019-03-31T06:33:41.186Z,36.87
2019-03-31T06:36:09.669Z,39.97
2019-03-31T06:38:38.183Z,41.77
2019-03-31T06:41:06.738Z,39.40
2019-03-31T06:43:35.243Z,40.23
2019-03-31T06:46:03.735Z,38.20
2019-03-31T06:48:32.238Z,39.27
2019-03-31T06:51:00.724Z,37.30
2019-03-31T06:53:29.232Z,42.70
2019-03-31T06:55:57.717Z,38.03
2019-03-31T06:58:26.214Z,41.43
2019-03-31T07:00:54.688Z,41.00
2019-03-31T07:03:23.197Z,41.67
2019-03-31T07:05:51.764Z,42.30
2019-03-31T07:08:20.259Z,42.70
2019-03-31T07:10:48.734Z,41.73
2019-03-31T07:13:17.249Z,45.40
2019-03-31T07:15:45.732Z,43.33
2019-03-31T07:18:15.981Z,45.53
2019-03-31T07:20:44.591Z,43.33
2019-03-31T07:23:13.099Z,42.67
2019-03-31T07:25:41.586Z,41.63
2019-03-31T07:28:10.110Z,41.83
2019-03-31T07:30:38.605Z,45.93
2019-03-31T07:33:07.119Z,46.03
2019-03-31T07:35:38.812Z,40.30
2019-03-31T07:38:05.851Z,46.80
2019-03-31T07:40:34.335Z,46.53
2019-03-31T07:43:02.900Z,47.10
2019-03-31T07:45:31.405Z,46.70
2019-03-31T07:47:59.904Z,52.93
2019-03-31T07:50:28.535Z,49.20
2019-03-31T07:52:57.072Z,47.33
2019-03-31T07:55:25.560Z,47.60
2019-03-31T07:57:54.699Z,49.60
2019-03-31T08:00:25.476Z,49.03
2019-03-31T08:02:54.069Z,47.73
2019-03-31T08:05:33.030Z,52.27
2019-03-31T08:07:52.773Z,58.13
2019-03-31T08:10:21.492Z,55.27
2019-03-31T08:12:50.000Z,53.20
2019-03-31T08:15:19.050Z,60.33
2019-03-31T08:17:47.560Z,56.00
2019-03-31T08:20:18.636Z,59.80
2019-03-31T08:22:47.418Z,56.67
2019-03-31T08:25:16.740Z,56.67
2019-03-31T08:27:45.250Z,57.30
2019-03-31T08:30:15.085Z,55.27
2019-03-31T08:32:43.596Z,54.87
2019-03-31T08:35:13.618Z,55.90
2019-03-31T08:37:42.117Z,58.83
2019-03-31T08:40:11.844Z,52.48
2019-03-31T08:42:40.361Z,52.48
2019-03-31T08:45:10.119Z,56.40
2019-03-31T08:47:38.895Z,58.63
2019-03-31T08:50:08.234Z,53.92
2019-03-31T08:52:36.801Z,53.70
2019-03-31T08:55:06.429Z,53.58
2019-03-31T08:57:35.151Z,49.70
2019-03-31T09:00:05.303Z,46.20
2019-03-31T09:02:34.969Z,44.53
2019-03-31T09:05:04.705Z,48.25
2019-03-31T09:07:33.181Z,50.20
2019-03-31T09:10:01.769Z,46.73
2019-03-31T09:12:30.245Z,49.58
2019-03-31T09:14:58.753Z,50.63
2019-03-31T09:17:27.234Z,50.17
2019-03-31T09:19:55.812Z,46.55
2019-03-31T09:22:24.303Z,48.68
2019-03-31T09:24:52.817Z,50.52
2019-03-31T09:27:21.376Z,48.15
2019-03-31T09:29:49.892Z,43.58
2019-03-31T09:32:18.384Z,43.02
2019-03-31T09:34:46.971Z,46.95
2019-03-31T09:37:15.447Z,42.58
2019-03-31T09:39:43.962Z,45.95
2019-03-31T09:42:12.440Z,45.43
2019-03-31T09:44:40.955Z,47.03
2019-03-31T09:47:09.438Z,46.40
2019-03-31T09:49:37.943Z,50.08
2019-03-31T09:52:06.426Z,43.55
2019-03-31T09:54:34.932Z,48.95
2019-03-31T09:57:03.589Z,51.68
2019-03-31T09:59:32.090Z,45.73
2019-03-31T10:02:00.572Z,46.30
2019-03-31T10:04:29.075Z,45.28
2019-03-31T10:06:57.823Z,45.28
2019-03-31T10:09:26.407Z,51.68
2019-03-31T10:11:54.891Z,46.00
2019-03-31T10:14:23.396Z,46.47
2019-03-31T10:16:51.878Z,51.95
2019-03-31T10:19:20.391Z,50.85
2019-03-31T10:21:48.879Z,50.95
2019-03-31T10:24:17.390Z,50.88
2019-03-31T10:26:45.878Z,51.00
2019-03-31T10:29:14.386Z,50.55
2019-03-31T10:31:43.239Z,53.75
2019-03-31T10:34:11.753Z,50.70
2019-03-31T10:36:44.767Z,53.48
2019-03-31T10:39:10.544Z,50.57
2019-03-31T10:41:39.023Z,55.73
2019-03-31T10:44:07.535Z,52.75
2019-03-31T10:46:36.074Z,52.65
2019-03-31T10:49:04.722Z,54.95
2019-03-31T10:51:33.284Z,57.10
2019-03-31T10:54:04.472Z,61.20
2019-03-31T10:56:31.999Z,56.50
2019-03-31T10:59:00.503Z,57.67
2019-03-31T11:01:28.985Z,56.30
2019-03-31T11:03:57.565Z,57.40
2019-03-31T11:06:26.047Z,57.60
2019-03-31T11:08:54.635Z,61.60
2019-03-31T11:11:23.113Z,59.70
2019-03-31T11:13:51.619Z,59.18
2019-03-31T11:16:20.104Z,60.30
2019-03-31T11:18:48.603Z,55.73
2019-03-31T11:21:24.450Z,57.48
2019-03-31T11:23:52.954Z,54.60
2019-03-31T11:26:21.437Z,59.20
2019-03-31T11:28:49.950Z,55.80
2019-03-31T11:31:18.442Z,59.13
2019-03-31T11:33:46.919Z,58.98
2019-03-31T11:36:15.427Z,55.28
2019-03-31T11:38:43.906Z,54.13
2019-03-31T11:41:12.419Z,57.53
2019-03-31T11:43:40.893Z,56.63
2019-03-31T11:46:09.403Z,53.52
2019-03-31T11:48:37.959Z,57.25
2019-03-31T11:51:06.464Z,55.10
2019-03-31T11:53:34.942Z,57.62
2019-03-31T11:56:03.442Z,57.27
2019-03-31T11:58:32.461Z,54.70
2019-03-31T12:01:01.106Z,56.23
2019-03-31T12:03:31.141Z,59.15
2019-03-31T12:05:59.970Z,60.93
2019-03-31T12:08:28.521Z,60.88
2019-03-31T12:10:57.030Z,62.45
2019-03-31T12:13:25.509Z,60.97
2019-03-31T12:15:54.018Z,62.27
2019-03-31T12:18:22.496Z,59.47
2019-03-31T12:20:51.016Z,58.75
2019-03-31T12:23:19.486Z,62.73
2019-03-31T12:25:47.993Z,59.53
2019-03-31T12:28:16.474Z,60.88
2019-03-31T12:30:44.999Z,63.42
2019-03-31T12:33:13.478Z,58.02
2019-03-31T12:35:41.984Z,59.00
2019-03-31T12:38:10.528Z,62.30
2019-03-31T12:40:39.384Z,64.15
2019-03-31T12:43:07.934Z,58.23
2019-03-31T12:45:36.450Z,58.17
2019-03-31T12:48:05.069Z,59.27
2019-03-31T12:50:33.581Z,57.75
2019-03-31T12:53:02.061Z,58.30
2019-03-31T12:55:30.571Z,59.70
2019-03-31T12:57:59.054Z,58.50
2019-03-31T13:00:27.577Z,57.63
2019-03-31T13:02:56.114Z,57.05
2019-03-31T13:05:24.621Z,60.40
2019-03-31T13:07:56.608Z,57.75
2019-03-31T13:10:23.330Z,56.10
2019-03-31T13:12:51.810Z,56.53
2019-03-31T13:15:20.314Z,57.33
2019-03-31T13:17:48.803Z,56.50
2019-03-31T13:20:17.644Z,56.48
2019-03-31T13:22:46.995Z,55.45
2019-03-31T13:25:15.496Z,48.70
2019-03-31T13:27:43.977Z,46.25
2019-03-31T13:30:12.545Z,45.43
2019-03-31T13:32:41.021Z,43.37
2019-03-31T13:35:09.986Z,43.70
2019-03-31T13:37:38.453Z,42.43
2019-03-31T13:40:08.023Z,42.03
2019-03-31T13:42:36.575Z,44.88
2019-03-31T13:45:08.342Z,40.92
2019-03-31T13:47:36.829Z,42.17
2019-03-31T13:50:09.478Z,39.25
2019-03-31T13:52:38.021Z,43.68
2019-03-31T13:55:10.311Z,43.35
2019-03-31T13:57:40.033Z,39.88
2019-03-31T14:00:11.181Z,37.70
2019-03-31T14:02:40.526Z,37.27
2019-03-31T14:05:09.574Z,41.75
2019-03-31T14:07:38.052Z,36.93
2019-03-31T14:10:08.000Z,38.17
2019-03-31T14:12:36.477Z,39.75
2019-03-31T14:15:18.900Z,39.40
2019-03-31T14:17:38.474Z,40.28
2019-03-31T14:20:07.589Z,38.15
2019-03-31T14:22:36.097Z,31.73
2019-03-31T14:25:06.223Z,35.10
2019-03-31T14:27:34.725Z,36.47
2019-03-31T14:30:05.152Z,33.08
2019-03-31T14:32:33.663Z,33.58
2019-03-31T14:35:02.150Z,37.13
2019-03-31T14:37:30.663Z,32.00
2019-03-31T14:39:59.150Z,31.62
2019-03-31T14:42:27.672Z,25.62
2019-03-31T14:44:56.217Z,27.93
2019-03-31T14:47:24.721Z,26.90
2019-03-31T14:49:53.208Z,26.00
2019-03-31T14:52:27.471Z,26.10
2019-03-31T14:54:51.927Z,26.17
2019-03-31T14:57:20.430Z,26.67
2019-03-31T14:59:48.911Z,25.20
2019-03-31T15:02:17.419Z,29.47
2019-03-31T15:04:45.897Z,26.07
2019-03-31T15:07:14.407Z,26.73
2019-03-31T15:09:42.887Z,30.50
2019-03-31T15:12:11.385Z,26.20
2019-03-31T15:14:39.950Z,25.30
2019-03-31T15:17:08.471Z,27.97
2019-03-31T15:19:36.948Z,27.40
2019-03-31T15:22:05.453Z,27.17
2019-03-31T15:24:33.937Z,31.63
2019-03-31T15:27:02.444Z,25.85
2019-03-31T15:29:30.934Z,25.00
2019-03-31T15:31:59.428Z,29.13
2019-03-31T15:34:27.907Z,32.07
2019-03-31T15:36:56.415Z,26.97
2019-03-31T15:39:24.908Z,22.50
2019-03-31T15:41:53.410Z,27.20
2019-03-31T15:44:21.895Z,30.70
2019-03-31T15:46:50.405Z,27.73
2019-03-31T15:49:18.890Z,25.93
2019-03-31T15:51:47.391Z,25.03
2019-03-31T15:54:17.449Z,25.30
2019-03-31T15:56:46.031Z,21.80
2019-03-31T15:59:14.510Z,26.97
2019-03-31T16:01:43.089Z,24.53
2019-03-31T16:04:11.625Z,23.47
2019-03-31T16:06:40.098Z,18.90
2019-03-31T16:09:22.368Z,22.13
2019-03-31T16:11:52.875Z,23.37
2019-03-31T16:14:09.154Z,22.00
2019-03-31T16:16:37.652Z,22.97
2019-03-31T16:19:06.130Z,22.40
2019-03-31T16:21:34.639Z,22.47
2019-03-31T16:24:03.119Z,20.53
2019-03-31T16:26:31.626Z,21.67
2019-03-31T16:29:00.108Z,21.77
2019-03-31T16:31:28.661Z,24.60
2019-03-31T16:33:57.145Z,23.97
2019-03-31T16:36:25.656Z,21.33
2019-03-31T16:38:54.144Z,19.27
2019-03-31T16:41:22.641Z,24.80
2019-03-31T16:43:51.121Z,19.93
2019-03-31T16:46:19.642Z,17.10
2019-03-31T16:48:48.126Z,22.67
2019-03-31T16:51:16.612Z,21.70
2019-03-31T16:53:45.198Z,28.30
2019-03-31T16:56:13.678Z,15.87
2019-03-31T16:58:42.180Z,20.10
2019-03-31T17:01:10.662Z,22.00
2019-03-31T17:03:39.174Z,23.13
2019-03-31T17:06:07.655Z,15.07
2019-03-31T17:08:36.161Z,18.00
2019-03-31T17:11:05.589Z,17.90
2019-03-31T17:13:34.309Z,18.50
2019-03-31T17:16:02.859Z,18.90
2019-03-31T17:18:31.379Z,16.67
2019-03-31T17:20:59.872Z,29.53
2019-03-31T17:23:28.376Z,21.90
2019-03-31T17:25:56.856Z,18.97
2019-03-31T17:28:25.365Z,18.40
2019-03-31T17:30:53.845Z,20.23
2019-03-31T17:33:22.346Z,19.60
2019-03-31T17:35:50.820Z,18.93
2019-03-31T17:38:19.319Z,19.83
2019-03-31T17:40:47.798Z,18.37
2019-03-31T17:43:16.311Z,21.67
2019-03-31T17:45:44.788Z,19.40
2019-03-31T17:48:13.300Z,19.73
2019-03-31T17:50:41.777Z,20.17
2019-03-31T17:53:10.272Z,20.97
2019-03-31T17:55:38.749Z,20.07
2019-03-31T17:58:07.256Z,20.40
2019-03-31T18:00:35.736Z,19.97
2019-03-31T18:03:04.314Z,22.33
2019-03-31T18:05:32.791Z,17.77
2019-03-31T18:08:01.295Z,21.37
2019-03-31T18:10:29.781Z,20.40
2019-03-31T18:12:58.284Z,18.97
2019-03-31T18:15:26.759Z,17.70
2019-03-31T18:17:55.271Z,19.00
2019-03-31T18:20:23.752Z,19.27
2019-03-31T18:22:52.258Z,20.97
2019-03-31T18:25:20.754Z,19.87
2019-03-31T18:27:49.265Z,18.73
2019-03-31T18:30:18.183Z,20.50
2019-03-31T18:32:46.688Z,20.43
2019-03-31T18:35:16.937Z,25.30
2019-03-31T18:37:45.401Z,20.17
2019-03-31T18:40:14.039Z,19.43
2019-03-31T18:42:42.553Z,22.90
2019-03-31T18:45:11.176Z,19.80
2019-03-31T18:47:39.700Z,26.43
2019-03-31T18:50:08.448Z,21.73
2019-03-31T18:52:36.952Z,26.00
2019-03-31T18:55:24.370Z,22.13
2019-03-31T18:57:54.524Z,24.47
2019-03-31T19:00:24.656Z,22.50
2019-03-31T19:03:06.779Z,18.60
2019-03-31T19:05:53.917Z,20.27
2019-03-31T19:08:36.105Z,20.00
2019-03-31T19:11:15.544Z,20.33
2019-03-31T19:13:55.871Z,22.40
2019-03-31T19:16:35.305Z,19.93
2019-03-31T19:19:06.066Z,23.10
2019-03-31T19:21:52.712Z,23.63
2019-03-31T19:24:38.700Z,21.07
2019-03-31T19:27:14.567Z,25.57
2019-03-31T19:29:59.712Z,25.67
2019-03-31T19:32:38.948Z,27.83
2019-03-31T19:35:21.520Z,33.37
2019-03-31T19:37:54.637Z,26.50
2019-03-31T19:40:41.528Z,24.13
2019-03-31T19:43:18.151Z,27.77
2019-03-31T19:45:53.949Z,32.40
2019-03-31T19:48:40.809Z,28.93
2019-03-31T19:51:19.772Z,26.60
2019-03-31T19:53:59.368Z,28.37
2019-03-31T19:56:29.515Z,27.47
2019-03-31T19:59:15.863Z,27.97
2019-03-31T20:02:04.147Z,27.87
2019-03-31T20:04:34.290Z,24.03
2019-03-31T20:07:07.507Z,31.17
2019-03-31T20:09:53.850Z,26.53
2019-03-31T20:12:26.433Z,23.50
2019-03-31T20:15:13.449Z,20.60
2019-03-31T20:17:43.903Z,20.80
2019-03-31T20:20:19.821Z,21.33
2019-03-31T20:23:01.995Z,18.10
2019-03-31T20:25:32.296Z,20.53
2019-03-31T20:28:02.820Z,19.73
2019-03-31T20:30:41.774Z,22.13
2019-03-31T20:33:28.069Z,21.33
2019-03-31T20:36:14.064Z,19.70
2019-03-31T20:38:44.209Z,22.50
2019-03-31T20:41:32.540Z,20.40
2019-03-31T20:44:01.282Z,22.93
2019-03-31T20:46:29.760Z,24.33
2019-03-31T20:48:58.257Z,22.37
2019-03-31T20:51:26.735Z,17.10
2019-03-31T20:53:55.251Z,19.93
2019-03-31T20:56:23.747Z,21.47
2019-03-31T20:58:52.440Z,21.80
2019-03-31T21:01:20.914Z,21.83
2019-03-31T21:03:49.423Z,20.90
2019-03-31T21:06:17.962Z,20.50
2019-03-31T21:08:46.759Z,21.13
2019-03-31T21:11:15.242Z,22.77
2019-03-31T21:13:44.059Z,24.00
2019-03-31T21:16:12.535Z,18.13
2019-03-31T21:18:41.043Z,19.30
2019-03-31T21:21:09.515Z,14.77
2019-03-31T21:23:38.015Z,15.53
2019-03-31T21:26:06.494Z,14.80
2019-03-31T21:28:35.005Z,19.97
2019-03-31T21:31:03.473Z,14.40
2019-03-31T21:33:31.962Z,16.50
2019-03-31T21:36:00.432Z,22.13
2019-03-31T21:38:28.911Z,18.63
2019-03-31T21:40:57.414Z,18.87
2019-03-31T21:43:25.886Z,16.70
2019-03-31T21:45:54.381Z,16.13
2019-03-31T21:48:22.855Z,17.77
2019-03-31T21:50:51.347Z,19.23
2019-03-31T21:53:19.907Z,21.90
2019-03-31T21:55:48.405Z,17.97
2019-03-31T21:58:16.873Z,20.07
2019-03-31T22:00:55.584Z,16.17
2019-03-31T22:03:24.054Z,15.37
2019-03-31T22:05:52.692Z,16.57
2019-03-31T22:08:21.160Z,16.50
2019-03-31T22:10:49.660Z,14.87
2019-03-31T22:13:18.134Z,18.17
2019-03-31T22:15:47.041Z,18.53
2019-03-31T22:18:15.829Z,17.37
2019-03-31T22:20:47.331Z,13.10
2019-03-31T22:23:14.664Z,20.07
2019-03-31T22:25:43.173Z,16.53
2019-03-31T22:28:11.646Z,18.20
2019-03-31T22:30:40.136Z,12.70
2019-03-31T22:33:08.617Z,19.53
2019-03-31T22:35:37.113Z,16.47
2019-03-31T22:38:05.589Z,18.23
2019-03-31T22:40:34.097Z,17.40
2019-03-31T22:43:02.567Z,19.10
2019-03-31T22:45:31.070Z,17.17
2019-03-31T22:47:59.545Z,17.43
2019-03-31T22:50:28.048Z,16.97
2019-03-31T22:52:56.520Z,14.87
2019-03-31T22:55:25.015Z,16.50
2019-03-31T22:57:53.488Z,19.13
2019-03-31T23:00:23.767Z,19.40
2019-03-31T23:02:52.236Z,22.37
2019-03-31T23:05:20.741Z,19.77
2019-03-31T23:07:49.210Z,15.17
2019-03-31T23:10:17.707Z,21.03
2019-03-31T23:12:46.180Z,15.67
2019-03-31T23:15:14.749Z,20.73
2019-03-31T23:17:43.220Z,20.80
2019-03-31T23:20:11.726Z,18.63
2019-03-31T23:22:40.184Z,15.37
2019-03-31T23:25:08.754Z,15.97
2019-03-31T23:27:37.226Z,14.43
2019-03-31T23:30:09.008Z,18.67
2019-03-31T23:32:37.546Z,17.07
2019-03-31T23:35:07.385Z,15.53
2019-03-31T23:37:35.864Z,16.17
2019-03-31T23:40:05.001Z,14.00
2019-03-31T23:42:33.812Z,13.27
2019-03-31T23:45:02.377Z,17.67
2019-03-31T23:47:30.850Z,12.53
2019-03-31T23:49:59.349Z,14.47
2019-03-31T23:52:27.823Z,14.23
2019-03-31T23:54:56.322Z,14.07
2019-03-31T23:57:41.660Z,14.40
